Loreauville, Louisiana
Current Conditions -  °F | °C
As of 6:53 AM on Friday 19 Dec 2014 (Local Time) from KARA Reporting Station
Overcast Overcast  
Wind Chill: 57°   Ceiling: 1800
Heat Index: 57°   Visibility: 10mi
Dew Point: 54°   Wind: 12mph
Humidity: 89%   Direction: 60°ENE
Pressure: 30.1"   Gusts: NA
Location:  30.06°N, 91.74°W
Report Text: KARA 191253Z 06010KT 10SM BKN018 OVC028 14/12 A3010 RMK AO2 RAE1155 SLP192 P0000 T01390122
Loading
Personal Weather Stations






























Interactive Weather Map New forecast layout! Learn more

10-Day Weather Forecast

Advertisements
Track Severe Weather on mobile